createdAt,value
2022-09-28T00:00:14.685Z,13.68
2022-09-28T00:01:24.033Z,13.69
2022-09-28T00:02:28.193Z,13.69
2022-09-28T00:03:32.480Z,13.67
2022-09-28T00:04:35.956Z,13.68
2022-09-28T00:05:39.451Z,13.59
2022-09-28T00:06:43.155Z,13.59
2022-09-28T00:07:47.668Z,13.65
2022-09-28T00:08:52.619Z,13.65
2022-09-28T00:09:57.120Z,13.60
2022-09-28T00:11:06.053Z,13.65
2022-09-28T00:12:10.706Z,13.55
2022-09-28T00:13:14.735Z,13.49
2022-09-28T00:14:18.753Z,13.57
2022-09-28T00:15:24.496Z,13.56
2022-09-28T00:16:35.291Z,13.52
2022-09-28T00:17:38.927Z,13.48
2022-09-28T00:18:43.720Z,13.51
2022-09-28T00:19:47.297Z,13.53
2022-09-28T00:21:11.259Z,13.50
2022-09-28T00:22:17.923Z,13.49
2022-09-28T00:23:21.468Z,13.49
2022-09-28T00:24:27.683Z,13.31
2022-09-28T00:25:31.827Z,13.44
2022-09-28T00:26:35.350Z,13.26
2022-09-28T00:27:38.943Z,13.42
2022-09-28T00:28:42.357Z,13.40
2022-09-28T00:29:46.184Z,13.42
2022-09-28T00:30:56.623Z,13.36
2022-09-28T00:47:19.834Z,13.10
2022-09-28T00:48:28.356Z,13.10
2022-09-28T00:50:08.357Z,13.08
2022-09-28T00:51:13.725Z,13.09
2022-09-28T00:52:36.186Z,13.08
2022-09-28T00:53:44.487Z,13.08
2022-09-28T00:54:51.405Z,13.08
2022-09-28T00:56:04.965Z,13.09
2022-09-28T00:57:09.776Z,13.08
2022-09-28T00:58:20.848Z,13.02
2022-09-28T00:59:24.952Z,13.10
2022-09-28T01:00:28.779Z,13.06
2022-09-28T01:01:32.496Z,13.10
2022-09-28T01:02:36.116Z,13.09
2022-09-28T01:03:48.802Z,13.08
2022-09-28T01:04:53.328Z,13.08
2022-09-28T01:06:02.346Z,13.08
2022-09-28T01:07:08.989Z,13.02
2022-09-28T01:08:14.758Z,13.06
2022-09-28T01:09:22.462Z,13.04
2022-09-28T01:10:29.098Z,13.04
2022-09-28T01:11:37.585Z,13.04
2022-09-28T01:12:41.340Z,13.02
2022-09-28T01:13:48.094Z,13.00
2022-09-28T01:14:52.956Z,13.04
2022-09-28T01:16:15.367Z,13.04
2022-09-28T01:17:50.374Z,13.02
2022-09-28T01:19:05.734Z,13.03
2022-09-28T01:20:53.903Z,13.02
2022-09-28T01:22:38.427Z,12.94
2022-09-28T01:24:24.046Z,12.90
2022-09-28T01:25:58.046Z,12.90
2022-09-28T01:27:43.121Z,12.89
2022-09-28T01:28:56.810Z,12.87
2022-09-28T01:30:10.547Z,12.85
2022-09-28T01:31:18.263Z,12.86
2022-09-28T01:33:55.696Z,12.77
2022-09-28T01:35:16.090Z,12.79
2022-09-28T01:36:37.109Z,12.83
2022-09-28T01:38:04.407Z,12.83
2022-09-28T01:39:21.749Z,12.84
2022-09-28T01:40:28.756Z,12.82
2022-09-28T01:41:37.043Z,12.82
2022-09-28T01:42:45.578Z,12.85
2022-09-28T01:43:56.111Z,12.85
2022-09-28T01:45:12.591Z,12.85
2022-09-28T01:46:26.005Z,12.85
2022-09-28T01:47:37.975Z,12.88
2022-09-28T01:48:56.898Z,12.87
2022-09-28T01:50:12.130Z,12.85
2022-09-28T01:51:36.649Z,12.87
2022-09-28T01:52:59.662Z,12.85
2022-09-28T01:54:13.793Z,12.75
2022-09-28T01:55:32.142Z,12.85
2022-09-28T01:56:48.701Z,12.85
2022-09-28T01:58:04.913Z,12.81
2022-09-28T01:59:22.972Z,12.89
2022-09-28T02:00:28.105Z,12.79
2022-09-28T02:01:47.065Z,12.79
2022-09-28T02:03:12.579Z,12.91
2022-09-28T02:04:27.775Z,12.91
2022-09-28T02:05:36.956Z,12.90
2022-09-28T02:07:07.763Z,12.90
2022-09-28T02:08:52.128Z,12.94
2022-09-28T02:10:11.017Z,12.93
2022-09-28T02:11:21.097Z,12.94
2022-09-28T02:12:39.793Z,12.95
2022-09-28T02:13:55.261Z,12.96
2022-09-28T02:15:12.793Z,12.96
2022-09-28T02:16:45.162Z,12.92
2022-09-28T02:17:49.888Z,12.94
2022-09-28T02:18:53.597Z,12.96
2022-09-28T02:19:57.167Z,12.96
2022-09-28T02:21:13.891Z,12.97
2022-09-28T02:22:27.674Z,12.97
2022-09-28T02:23:36.299Z,12.98
2022-09-28T02:25:16.487Z,12.93
2022-09-28T02:26:27.645Z,12.96
2022-09-28T02:27:49.591Z,12.95
2022-09-28T02:28:53.343Z,12.95
2022-09-28T02:29:57.425Z,12.97
2022-09-28T02:31:01.512Z,12.83
2022-09-28T02:32:05.320Z,12.96
2022-09-28T02:33:16.836Z,12.97
2022-09-28T02:34:20.427Z,12.96
2022-09-28T02:35:24.250Z,12.94
2022-09-28T02:36:29.028Z,12.93
2022-09-28T02:37:32.869Z,12.96
2022-09-28T02:38:38.055Z,12.96
2022-09-28T02:39:41.670Z,12.97
2022-09-28T02:41:02.609Z,12.93
2022-09-28T02:42:40.797Z,12.94
2022-09-28T02:44:22.141Z,12.89
2022-09-28T02:46:02.429Z,12.96
2022-09-28T02:47:19.521Z,12.93
2022-09-28T02:49:20.866Z,12.90
2022-09-28T02:50:47.228Z,12.91
2022-09-28T02:52:28.761Z,12.91
2022-09-28T02:53:59.718Z,12.84
2022-09-28T02:55:44.739Z,12.88
2022-09-28T02:57:19.829Z,12.85
2022-09-28T02:59:00.509Z,12.85
2022-09-28T03:00:15.569Z,12.83
2022-09-28T03:02:12.456Z,12.80
2022-09-28T03:03:33.427Z,12.74
2022-09-28T03:05:18.034Z,12.75
2022-09-28T03:06:45.961Z,12.74
2022-09-28T03:07:58.204Z,12.72
2022-09-28T03:09:37.838Z,12.67
2022-09-28T03:10:57.245Z,12.66
2022-09-28T03:12:11.430Z,12.64
2022-09-28T03:13:17.123Z,12.61
2022-09-28T03:14:21.433Z,12.60
2022-09-28T03:15:29.637Z,12.58
2022-09-28T03:16:33.471Z,12.58
2022-09-28T03:17:37.601Z,12.57
2022-09-28T03:18:42.404Z,12.56
2022-09-28T03:19:45.927Z,12.52
2022-09-28T03:20:50.204Z,12.37
2022-09-28T03:21:55.644Z,12.40
2022-09-28T03:23:23.789Z,12.37
2022-09-28T03:24:22.914Z,12.36
2022-09-28T03:25:27.088Z,12.29
2022-09-28T03:26:30.547Z,12.17
2022-09-28T03:27:34.444Z,12.21
2022-09-28T03:28:38.545Z,12.25
2022-09-28T03:29:42.126Z,12.19
2022-09-28T03:30:46.567Z,12.17
2022-09-28T03:31:50.470Z,12.22
2022-09-28T03:33:02.543Z,12.11
2022-09-28T03:34:06.276Z,12.16
2022-09-28T03:35:13.628Z,12.20
2022-09-28T03:36:17.343Z,12.18
2022-09-28T03:37:20.787Z,12.17
2022-09-28T03:38:24.790Z,12.17
2022-09-28T03:39:28.375Z,12.11
2022-09-28T03:40:32.156Z,12.04
2022-09-28T03:41:35.791Z,12.05
2022-09-28T03:42:39.242Z,12.06
2022-09-28T03:43:42.893Z,12.06
2022-09-28T03:44:46.433Z,12.06
2022-09-28T03:45:59.387Z,12.03
2022-09-28T03:47:03.126Z,11.95
2022-09-28T03:48:06.674Z,11.92
2022-09-28T03:49:10.768Z,12.04
2022-09-28T03:50:15.585Z,12.02
2022-09-28T03:51:19.681Z,12.01
2022-09-28T03:52:23.199Z,11.99
2022-09-28T03:53:27.085Z,11.92
2022-09-28T03:54:30.734Z,11.91
2022-09-28T03:55:34.501Z,11.96
2022-09-28T03:56:38.094Z,11.95
2022-09-28T03:57:41.581Z,11.92
2022-09-28T03:58:45.238Z,11.85
2022-09-28T03:59:48.963Z,11.86
2022-09-28T04:00:52.586Z,11.91
2022-09-28T04:01:56.185Z,11.86
2022-09-28T04:02:59.788Z,11.89
2022-09-28T04:04:03.315Z,11.82
2022-09-28T04:05:07.161Z,11.82
2022-09-28T04:06:11.121Z,11.85
2022-09-28T04:07:15.111Z,11.85
2022-09-28T04:08:20.011Z,11.78
2022-09-28T04:09:23.533Z,11.77
2022-09-28T04:10:27.363Z,11.80
2022-09-28T04:11:42.999Z,11.82
2022-09-28T04:12:56.803Z,11.81
2022-09-28T04:14:00.929Z,11.80
2022-09-28T04:15:04.969Z,11.82
2022-09-28T04:16:10.880Z,11.81
2022-09-28T04:17:14.628Z,11.71
2022-09-28T04:18:18.201Z,11.77
2022-09-28T04:19:25.385Z,11.74
2022-09-28T04:20:28.974Z,11.66
2022-09-28T04:21:33.000Z,11.67
2022-09-28T04:22:37.783Z,11.72
2022-09-28T04:23:42.398Z,11.67
2022-09-28T04:24:46.657Z,11.68
2022-09-28T04:25:53.585Z,11.67
2022-09-28T04:27:17.250Z,11.58
2022-09-28T04:28:39.509Z,11.64
2022-09-28T04:29:44.091Z,11.65
2022-09-28T04:30:48.373Z,11.65
2022-09-28T04:31:55.441Z,11.60
2022-09-28T04:32:59.040Z,11.56
2022-09-28T04:34:02.585Z,11.64
2022-09-28T04:35:07.097Z,11.53
2022-09-28T04:36:11.251Z,11.58
2022-09-28T04:37:15.107Z,11.54
2022-09-28T04:38:30.854Z,11.63
2022-09-28T04:39:46.168Z,11.63
2022-09-28T04:40:51.816Z,11.52
2022-09-28T04:41:56.080Z,11.60
2022-09-28T04:42:59.840Z,11.60
2022-09-28T04:44:04.074Z,11.60
2022-09-28T04:45:08.737Z,11.52
2022-09-28T04:46:12.697Z,11.59
2022-09-28T04:47:16.276Z,11.57
2022-09-28T04:48:19.752Z,11.51
2022-09-28T04:49:25.122Z,11.55
2022-09-28T04:50:28.629Z,11.55
2022-09-28T04:51:33.148Z,11.53
2022-09-28T04:52:37.991Z,11.49
2022-09-28T04:53:41.787Z,11.53
2022-09-28T04:54:45.904Z,11.49
2022-09-28T04:56:00.425Z,11.51
2022-09-28T04:57:06.288Z,11.50
2022-09-28T04:58:09.930Z,11.49
2022-09-28T04:59:13.604Z,11.47
2022-09-28T05:00:17.458Z,11.39
2022-09-28T05:01:23.937Z,11.40
2022-09-28T05:02:28.027Z,11.25
2022-09-28T05:03:31.657Z,11.36
2022-09-28T05:04:35.846Z,11.35
2022-09-28T05:05:45.820Z,11.38
2022-09-28T05:06:49.638Z,11.33
2022-09-28T05:07:53.248Z,11.30
2022-09-28T05:08:57.687Z,11.39
2022-09-28T05:10:01.677Z,11.40
2022-09-28T05:11:08.722Z,11.41
2022-09-28T05:12:12.779Z,11.35
2022-09-28T05:13:19.095Z,11.40
2022-09-28T05:14:22.774Z,11.41
2022-09-28T05:15:26.316Z,11.41
2022-09-28T05:16:33.835Z,11.28
2022-09-28T05:17:37.454Z,11.43
2022-09-28T05:18:41.082Z,11.37
2022-09-28T05:19:44.722Z,11.43
2022-09-28T05:20:48.260Z,11.42
2022-09-28T05:21:51.877Z,11.39
2022-09-28T05:22:56.388Z,11.46
2022-09-28T05:24:07.794Z,11.10
2022-09-28T05:25:11.527Z,11.50
2022-09-28T05:26:15.751Z,11.52
2022-09-28T05:27:19.586Z,11.51
2022-09-28T05:28:29.138Z,11.56
2022-09-28T05:29:32.969Z,11.48
2022-09-28T05:30:37.206Z,11.53
2022-09-28T05:31:41.193Z,11.62
2022-09-28T05:32:47.563Z,11.63
2022-09-28T05:33:55.592Z,11.60
2022-09-28T05:35:01.359Z,11.66
2022-09-28T05:36:11.141Z,11.65
2022-09-28T05:37:14.686Z,11.59
2022-09-28T05:38:18.238Z,11.59
2022-09-28T05:39:24.559Z,11.66
2022-09-28T05:40:28.304Z,11.67
2022-09-28T05:41:32.072Z,11.68
2022-09-28T05:42:36.004Z,11.65
2022-09-28T05:43:39.714Z,11.68
2022-09-28T05:44:43.524Z,11.69
2022-09-28T05:45:49.400Z,11.64
2022-09-28T05:46:56.569Z,11.70
2022-09-28T05:48:00.279Z,11.73
2022-09-28T05:49:04.261Z,11.69
2022-09-28T05:50:11.973Z,11.75
2022-09-28T05:51:15.689Z,11.80
2022-09-28T05:52:20.449Z,11.80
2022-09-28T05:53:24.579Z,11.80
2022-09-28T05:54:28.182Z,11.93
2022-09-28T05:55:33.037Z,12.01
2022-09-28T05:56:36.812Z,12.09
2022-09-28T05:57:40.534Z,12.15
2022-09-28T05:58:44.022Z,12.21
2022-09-28T05:59:47.628Z,12.22
2022-09-28T06:00:56.675Z,12.30
2022-09-28T06:02:00.810Z,12.39
2022-09-28T06:03:12.266Z,12.39
2022-09-28T06:04:16.591Z,12.51
2022-09-28T06:05:20.570Z,12.52
2022-09-28T06:06:24.310Z,12.63
2022-09-28T06:07:28.046Z,12.63
2022-09-28T06:08:33.691Z,12.74
2022-09-28T06:09:37.668Z,12.73
2022-09-28T06:10:41.905Z,12.76
2022-09-28T06:11:45.570Z,12.85
2022-09-28T06:23:19.812Z,12.97
2022-09-28T06:24:24.273Z,13.15
2022-09-28T06:25:28.681Z,13.16
2022-09-28T06:26:32.816Z,13.08
2022-09-28T06:27:37.311Z,13.12
2022-09-28T06:28:40.995Z,13.14
2022-09-28T06:29:44.536Z,13.08
2022-09-28T06:30:48.318Z,13.13
2022-09-28T06:31:52.033Z,13.23
2022-09-28T06:32:58.207Z,13.30
2022-09-28T06:34:02.578Z,13.34
2022-09-28T06:35:06.771Z,13.53
2022-09-28T06:36:10.702Z,13.63
2022-09-28T06:37:14.230Z,13.68
2022-09-28T06:38:18.461Z,13.80
2022-09-28T06:39:22.316Z,13.87
2022-09-28T06:40:27.052Z,13.94
2022-09-28T06:41:30.858Z,14.00
2022-09-28T06:42:34.970Z,14.03
2022-09-28T06:43:41.887Z,14.06
2022-09-28T06:44:47.188Z,14.18
2022-09-28T06:45:54.344Z,14.22
2022-09-28T06:46:57.994Z,14.22
2022-09-28T06:48:03.062Z,14.31
2022-09-28T06:49:14.162Z,14.49
2022-09-28T06:50:20.005Z,14.63
2022-09-28T06:51:25.154Z,14.80
2022-09-28T06:52:29.010Z,14.94
2022-09-28T06:53:32.822Z,15.10
2022-09-28T06:54:36.350Z,15.21
2022-09-28T06:55:49.352Z,15.45
2022-09-28T06:56:55.807Z,15.60
2022-09-28T06:58:08.085Z,15.80
2022-09-28T06:59:11.597Z,16.00
2022-09-28T07:00:15.715Z,16.26
2022-09-28T07:01:22.711Z,16.51
2022-09-28T07:02:26.575Z,16.73
2022-09-28T07:03:30.256Z,16.91
2022-09-28T07:04:34.135Z,17.10
2022-09-28T07:05:46.507Z,17.41
2022-09-28T07:06:50.892Z,17.63
2022-09-28T07:07:58.809Z,17.84
2022-09-28T07:09:22.245Z,18.07
2022-09-28T07:10:32.113Z,18.51
2022-09-28T07:11:39.787Z,18.78
2022-09-28T07:12:43.914Z,19.02
2022-09-28T07:13:51.173Z,19.39
2022-09-28T07:14:57.440Z,19.73
2022-09-28T07:16:02.070Z,20.11
2022-09-28T07:17:13.790Z,20.47
2022-09-28T07:18:18.876Z,20.70
2022-09-28T07:19:23.014Z,20.70
2022-09-28T07:20:27.671Z,20.86
2022-09-28T07:21:31.305Z,20.87
2022-09-28T07:22:43.123Z,20.67
2022-09-28T07:23:53.822Z,20.41
2022-09-28T07:24:57.999Z,20.17
2022-09-28T07:26:08.291Z,19.88
2022-09-28T07:27:12.600Z,19.51
2022-09-28T07:28:17.514Z,19.71
2022-09-28T07:29:21.573Z,19.77
2022-09-28T07:30:27.505Z,19.85
2022-09-28T07:31:32.418Z,20.03
2022-09-28T07:32:37.657Z,20.60
2022-09-28T07:33:41.891Z,21.29
2022-09-28T07:34:46.202Z,22.17
2022-09-28T07:35:55.725Z,23.10
2022-09-28T07:36:59.832Z,23.99
2022-09-28T07:38:08.745Z,24.87
2022-09-28T07:39:12.339Z,25.66
2022-09-28T07:40:35.063Z,26.28
2022-09-28T07:41:40.103Z,27.06
2022-09-28T07:42:43.692Z,27.45
2022-09-28T07:43:47.623Z,27.81
2022-09-28T07:44:51.629Z,28.19
2022-09-28T07:45:55.962Z,28.52
2022-09-28T07:46:59.585Z,28.76
2022-09-28T07:48:04.266Z,28.88
2022-09-28T07:49:11.414Z,29.00
2022-09-28T07:50:16.836Z,29.13
2022-09-28T07:51:21.535Z,29.20
2022-09-28T07:52:26.271Z,29.30
2022-09-28T07:53:31.087Z,29.44
2022-09-28T07:54:34.836Z,29.64
2022-09-28T07:55:38.313Z,29.65
2022-09-28T07:56:42.174Z,29.26
2022-09-28T07:57:48.255Z,28.84
2022-09-28T07:58:52.201Z,28.63
2022-09-28T07:59:55.907Z,28.61
2022-09-28T08:01:03.152Z,28.69
2022-09-28T08:02:07.074Z,28.87
2022-09-28T08:03:10.613Z,28.95
2022-09-28T08:04:14.207Z,29.21
2022-09-28T08:05:18.258Z,29.20
2022-09-28T08:06:22.108Z,29.33
2022-09-28T08:07:26.006Z,29.26
2022-09-28T08:08:30.178Z,29.17
2022-09-28T08:09:34.502Z,29.05
2022-09-28T08:10:38.283Z,29.36
2022-09-28T08:11:44.012Z,29.75
2022-09-28T08:12:48.056Z,29.93
2022-09-28T08:13:55.535Z,29.81
2022-09-28T08:15:00.287Z,30.00
2022-09-28T08:16:05.995Z,30.08
2022-09-28T08:17:10.873Z,30.33
2022-09-28T08:18:14.703Z,30.16
2022-09-28T08:19:18.366Z,30.19
2022-09-28T08:20:40.608Z,30.43
2022-09-28T08:21:47.458Z,31.03
2022-09-28T08:22:51.671Z,31.56
2022-09-28T08:23:55.926Z,31.95
2022-09-28T08:24:59.523Z,32.23
2022-09-28T08:26:03.148Z,32.58
2022-09-28T08:27:07.379Z,32.90
2022-09-28T08:28:10.871Z,33.06
2022-09-28T08:29:15.553Z,33.41
2022-09-28T08:30:20.169Z,33.63
2022-09-28T08:31:23.738Z,33.89
2022-09-28T08:32:31.245Z,34.28
2022-09-28T08:33:35.778Z,34.73
2022-09-28T09:12:28.801Z,30.58
2022-09-28T09:13:51.483Z,29.71
2022-09-28T09:15:43.453Z,29.36
2022-09-28T09:17:14.391Z,28.95
2022-09-28T09:19:03.751Z,28.08
2022-09-28T09:20:32.726Z,27.24
2022-09-28T09:21:52.708Z,26.46
2022-09-28T09:23:06.236Z,25.76
2022-09-28T09:24:27.294Z,25.21
2022-09-28T09:25:56.015Z,24.65
2022-09-28T09:27:14.660Z,24.27
2022-09-28T09:28:38.409Z,23.91
2022-09-28T09:30:13.450Z,23.53
2022-09-28T09:31:29.026Z,23.35
2022-09-28T09:33:11.936Z,23.07
2022-09-28T09:34:24.676Z,22.83
2022-09-28T09:35:40.403Z,22.72
2022-09-28T09:37:22.031Z,22.63
2022-09-28T09:39:17.614Z,22.47
2022-09-28T09:41:21.113Z,22.18
2022-09-28T09:42:44.964Z,22.05
2022-09-28T09:44:13.552Z,21.92
2022-09-28T09:45:41.343Z,21.67
2022-09-28T09:47:08.412Z,21.47
2022-09-28T09:48:58.786Z,21.25
2022-09-28T09:50:15.174Z,21.12
2022-09-28T09:51:52.004Z,20.98
2022-09-28T09:53:13.532Z,20.89
2022-09-28T09:54:26.111Z,20.82
2022-09-28T09:55:46.510Z,20.70
2022-09-28T09:57:08.214Z,20.71
2022-09-28T09:58:46.768Z,20.66
2022-09-28T09:59:50.844Z,20.47
2022-09-28T10:01:07.450Z,20.41
2022-09-28T10:02:35.129Z,20.17
2022-09-28T10:03:45.939Z,20.14
2022-09-28T10:04:55.275Z,20.03
2022-09-28T10:06:07.787Z,19.89
2022-09-28T10:07:23.751Z,19.77
2022-09-28T10:08:29.114Z,19.71
2022-09-28T10:09:48.489Z,19.53
2022-09-28T10:11:25.750Z,19.50
2022-09-28T10:12:31.194Z,19.40
2022-09-28T10:13:35.620Z,19.26
2022-09-28T10:14:39.493Z,19.24
2022-09-28T10:15:43.601Z,19.09
2022-09-28T10:16:49.969Z,19.04
2022-09-28T10:18:00.374Z,19.02
2022-09-28T10:19:04.188Z,18.98
2022-09-28T10:20:15.445Z,18.91
2022-09-28T10:21:23.205Z,18.83
2022-09-28T10:22:31.614Z,18.83
2022-09-28T10:23:38.683Z,18.75
2022-09-28T10:24:47.249Z,18.78
2022-09-28T10:25:57.506Z,18.76
2022-09-28T10:27:12.448Z,18.75
2022-09-28T10:28:26.475Z,18.61
2022-09-28T10:29:43.485Z,18.58
2022-09-28T10:30:47.385Z,18.50
2022-09-28T10:31:54.605Z,18.52
2022-09-28T10:33:00.965Z,18.50
2022-09-28T10:34:08.066Z,18.46
2022-09-28T10:35:29.683Z,18.43
2022-09-28T10:36:52.335Z,18.44
2022-09-28T10:38:17.578Z,18.44
2022-09-28T10:39:53.679Z,18.46
2022-09-28T10:41:11.651Z,18.34
2022-09-28T10:42:27.294Z,18.44
2022-09-28T10:43:38.692Z,18.39
2022-09-28T10:44:58.881Z,18.37
2022-09-28T10:46:05.276Z,18.39
2022-09-28T10:47:15.741Z,18.36
2022-09-28T10:48:22.478Z,18.37
2022-09-28T10:49:28.694Z,18.39
2022-09-28T10:50:32.664Z,18.39
2022-09-28T10:51:44.343Z,18.38
2022-09-28T10:52:47.901Z,18.40
2022-09-28T10:54:02.953Z,18.41
2022-09-28T10:55:30.043Z,18.41
2022-09-28T10:56:40.635Z,18.18
2022-09-28T10:57:44.250Z,18.16
2022-09-28T10:58:47.987Z,18.38
2022-09-28T10:59:51.945Z,18.34
2022-09-28T11:01:09.385Z,18.42
2022-09-28T11:02:33.492Z,18.43
2022-09-28T11:04:02.096Z,18.43
2022-09-28T11:05:07.981Z,18.34
2022-09-28T11:06:12.612Z,18.40
2022-09-28T11:07:27.779Z,18.38
2022-09-28T11:08:39.626Z,18.40
2022-09-28T11:09:48.849Z,18.39
2022-09-28T11:11:16.709Z,18.39
2022-09-28T11:12:34.506Z,18.49
2022-09-28T11:13:46.272Z,18.53
2022-09-28T11:14:59.186Z,18.59
2022-09-28T11:16:03.162Z,18.64
2022-09-28T11:17:32.932Z,18.68
2022-09-28T11:18:36.502Z,18.70
2022-09-28T11:19:41.194Z,18.73
2022-09-28T11:20:45.573Z,18.74
2022-09-28T11:21:49.390Z,18.76
2022-09-28T11:22:58.758Z,18.78
2022-09-28T11:24:19.635Z,18.74
2022-09-28T11:25:28.470Z,18.77
2022-09-28T11:26:41.103Z,18.80
2022-09-28T11:27:53.504Z,18.80
2022-09-28T11:28:57.222Z,18.82
2022-09-28T11:30:01.466Z,18.81
2022-09-28T11:31:09.202Z,18.81
2022-09-28T11:32:15.888Z,18.81
2022-09-28T11:33:33.654Z,18.87
2022-09-28T11:34:58.725Z,18.90
2022-09-28T11:36:16.891Z,18.96
2022-09-28T11:37:42.454Z,19.02
2022-09-28T11:39:23.192Z,19.06
2022-09-28T11:40:42.680Z,19.10
2022-09-28T11:42:03.383Z,19.12
2022-09-28T11:43:43.895Z,19.15
2022-09-28T11:44:49.702Z,19.02
2022-09-28T11:46:26.858Z,19.12
2022-09-28T11:48:01.258Z,19.12
2022-09-28T11:49:27.962Z,19.03
2022-09-28T11:50:45.698Z,18.96
2022-09-28T11:51:54.237Z,18.90
2022-09-28T11:53:14.751Z,18.85
2022-09-28T11:55:25.671Z,18.79
2022-09-28T11:56:43.415Z,18.72
2022-09-28T11:58:01.635Z,18.65
2022-09-28T11:59:22.823Z,18.64
2022-09-28T12:00:28.760Z,18.64
2022-09-28T12:02:00.534Z,18.63
2022-09-28T12:03:34.202Z,18.36
2022-09-28T12:04:53.131Z,18.62
2022-09-28T12:06:04.777Z,18.62
2022-09-28T12:07:38.540Z,18.61
2022-09-28T12:09:03.403Z,18.46
2022-09-28T12:10:45.388Z,18.55
2022-09-28T12:11:58.901Z,18.46
2022-09-28T12:13:28.603Z,18.46
2022-09-28T12:14:39.877Z,18.36
2022-09-28T12:16:15.046Z,18.41
2022-09-28T12:17:32.924Z,18.38
2022-09-28T12:19:03.982Z,18.40
2022-09-28T12:20:30.613Z,18.37
2022-09-28T12:21:55.806Z,18.37
2022-09-28T12:23:21.207Z,18.40
2022-09-28T12:24:52.928Z,18.39
2022-09-28T12:26:04.735Z,18.42
2022-09-28T12:27:26.140Z,18.42
2022-09-28T12:28:39.970Z,18.34
2022-09-28T12:30:13.932Z,18.45
2022-09-28T12:31:34.259Z,18.46
2022-09-28T12:33:00.372Z,18.48
2022-09-28T12:34:05.219Z,18.44
2022-09-28T12:35:58.302Z,18.51
2022-09-28T12:37:36.510Z,18.54
2022-09-28T12:39:19.160Z,18.57
2022-09-28T12:40:37.565Z,18.53
2022-09-28T12:42:46.186Z,18.61
2022-09-28T12:44:06.062Z,18.65
2022-09-28T12:46:10.398Z,18.69
2022-09-28T12:47:37.778Z,18.70
2022-09-28T12:51:20.645Z,18.76
2022-09-28T12:52:37.825Z,18.74
2022-09-28T12:54:18.485Z,18.66
2022-09-28T12:55:37.195Z,18.77
2022-09-28T12:57:05.684Z,18.79
2022-09-28T12:58:33.080Z,18.81
2022-09-28T13:00:02.421Z,18.82
2022-09-28T13:01:24.272Z,18.81
2022-09-28T13:03:02.015Z,18.86
2022-09-28T13:04:32.261Z,18.88
2022-09-28T13:06:06.115Z,18.91
2022-09-28T13:07:30.541Z,18.93
2022-09-28T13:08:40.600Z,18.88
2022-09-28T13:09:59.218Z,18.99
2022-09-28T13:11:32.047Z,19.05
2022-09-28T13:13:28.247Z,19.07
2022-09-28T13:15:04.348Z,19.08
2022-09-28T13:16:44.497Z,19.08
2022-09-28T13:18:16.114Z,19.11
2022-09-28T13:19:49.049Z,19.12
2022-09-28T13:21:46.041Z,19.07
2022-09-28T13:23:20.017Z,19.20
2022-09-28T13:24:33.492Z,19.22
2022-09-28T13:25:52.237Z,19.25
2022-09-28T13:27:03.114Z,19.29
2022-09-28T13:28:07.042Z,19.31
2022-09-28T13:29:18.385Z,19.34
2022-09-28T13:30:22.753Z,19.34
2022-09-28T13:31:33.956Z,19.35
2022-09-28T13:32:41.091Z,19.32
2022-09-28T13:33:47.675Z,19.32
2022-09-28T13:34:51.689Z,19.34
2022-09-28T13:35:55.386Z,19.33
2022-09-28T13:37:20.421Z,19.35
2022-09-28T13:38:24.025Z,19.35
2022-09-28T13:39:46.166Z,19.32
2022-09-28T13:41:04.871Z,19.32
2022-09-28T13:42:11.965Z,19.29
2022-09-28T13:43:43.321Z,19.33
2022-09-28T13:45:20.511Z,19.30
2022-09-28T13:47:00.607Z,19.31
2022-09-28T13:48:13.586Z,19.31
2022-09-28T13:50:00.820Z,19.28
2022-09-28T13:51:38.306Z,19.27
2022-09-28T13:53:17.503Z,19.25
2022-09-28T13:54:45.531Z,19.26
2022-09-28T13:56:19.413Z,19.19
2022-09-28T13:57:42.082Z,19.24
2022-09-28T13:59:29.102Z,19.24
2022-09-28T14:00:53.484Z,19.20
2022-09-28T14:02:43.054Z,19.22
2022-09-28T14:04:19.184Z,19.21
2022-09-28T14:05:46.995Z,19.20
2022-09-28T14:07:33.777Z,19.17
2022-09-28T14:09:08.706Z,19.11
2022-09-28T14:10:21.216Z,19.12
2022-09-28T14:11:27.565Z,19.12
2022-09-28T14:12:33.865Z,19.10
2022-09-28T14:13:43.178Z,19.10
2022-09-28T14:14:50.272Z,19.08
2022-09-28T14:15:54.139Z,19.06
2022-09-28T14:17:23.869Z,19.04
2022-09-28T14:18:34.374Z,19.02
2022-09-28T14:19:39.342Z,19.01
2022-09-28T14:21:06.539Z,18.98
2022-09-28T14:23:10.895Z,18.87
2022-09-28T14:24:32.380Z,18.91
2022-09-28T14:26:20.565Z,18.72
2022-09-28T14:28:13.076Z,18.86
2022-09-28T14:29:31.828Z,18.81
2022-09-28T14:30:48.495Z,18.77
2022-09-28T14:31:52.391Z,18.77
2022-09-28T14:32:59.711Z,18.73
2022-09-28T14:34:04.683Z,18.72
2022-09-28T14:35:31.562Z,18.72
2022-09-28T14:37:07.742Z,18.62
2022-09-28T14:38:38.347Z,18.66
2022-09-28T14:40:13.158Z,18.61
2022-09-28T14:41:17.846Z,18.61
2022-09-28T14:42:25.981Z,18.56
2022-09-28T14:43:45.773Z,18.59
2022-09-28T14:45:06.779Z,18.58
2022-09-28T14:46:11.438Z,18.59
2022-09-28T14:47:41.053Z,18.57
2022-09-28T14:48:55.340Z,18.52
2022-09-28T14:50:21.963Z,18.55
2022-09-28T14:51:30.299Z,18.53
2022-09-28T14:52:47.422Z,18.49
2022-09-28T14:53:56.589Z,18.47
2022-09-28T14:55:00.371Z,18.48
2022-09-28T14:56:09.070Z,18.41
2022-09-28T14:57:20.257Z,18.41
2022-09-28T14:58:30.052Z,18.38
2022-09-28T14:59:41.860Z,18.44
2022-09-28T15:00:49.234Z,18.42
2022-09-28T15:02:11.714Z,18.41
2022-09-28T15:03:16.343Z,18.39
2022-09-28T15:04:21.264Z,18.38
2022-09-28T15:05:36.064Z,18.31
2022-09-28T15:06:51.385Z,18.27
2022-09-28T15:07:56.537Z,18.34
2022-09-28T15:09:00.003Z,18.29
2022-09-28T15:10:26.620Z,18.30
2022-09-28T15:11:31.676Z,18.20
2022-09-28T15:12:35.375Z,18.26
2022-09-28T15:13:40.831Z,18.26
2022-09-28T15:14:59.761Z,18.25
2022-09-28T15:16:14.661Z,18.24
2022-09-28T15:17:24.671Z,18.20
2022-09-28T15:19:01.615Z,18.09
2022-09-28T15:20:30.055Z,18.10
2022-09-28T15:21:41.195Z,18.15
2022-09-28T15:22:50.619Z,18.16
2022-09-28T15:23:55.405Z,17.99
2022-09-28T15:25:03.012Z,18.10
2022-09-28T15:26:22.236Z,18.11
2022-09-28T15:27:35.496Z,18.10
2022-09-28T15:28:45.184Z,18.09
2022-09-28T15:30:27.033Z,18.06
2022-09-28T15:31:36.350Z,18.05
2022-09-28T15:32:40.149Z,18.02
2022-09-28T15:34:02.324Z,17.99
2022-09-28T15:35:27.143Z,17.97
2022-09-28T15:36:37.941Z,17.94
2022-09-28T15:37:42.794Z,17.96
2022-09-28T15:38:57.969Z,17.82
2022-09-28T15:40:03.163Z,17.91
2022-09-28T15:41:10.045Z,17.89
2022-09-28T15:42:17.022Z,17.89
2022-09-28T15:43:30.983Z,17.87
2022-09-28T15:44:44.150Z,17.86
2022-09-28T15:46:13.832Z,17.85
2022-09-28T15:47:30.830Z,17.84
2022-09-28T15:48:44.296Z,17.83
2022-09-28T15:50:02.939Z,17.81
2022-09-28T15:51:11.744Z,17.69
2022-09-28T15:52:26.136Z,17.80
2022-09-28T15:53:31.401Z,17.78
2022-09-28T15:54:45.327Z,17.79
2022-09-28T15:55:51.475Z,17.77
2022-09-28T15:57:02.732Z,17.71
2022-09-28T15:58:12.650Z,17.75
2022-09-28T15:59:16.108Z,17.76
2022-09-28T16:00:30.087Z,17.74
2022-09-28T16:01:44.252Z,17.75
2022-09-28T16:03:22.296Z,17.73
2022-09-28T16:05:01.271Z,17.71
2022-09-28T16:06:10.841Z,17.70
2022-09-28T16:07:37.104Z,17.56
2022-09-28T16:08:44.048Z,17.63
2022-09-28T16:10:13.477Z,17.68
2022-09-28T16:11:38.741Z,17.61
2022-09-28T16:12:50.514Z,17.60
2022-09-28T16:14:14.817Z,17.53
2022-09-28T16:15:32.031Z,17.61
2022-09-28T16:16:48.178Z,17.57
2022-09-28T16:18:04.221Z,17.59
2022-09-28T16:19:23.709Z,17.58
2022-09-28T16:20:36.528Z,17.58
2022-09-28T16:21:48.300Z,17.58
2022-09-28T16:22:53.967Z,17.23
2022-09-28T16:23:58.382Z,17.52
2022-09-28T16:25:03.219Z,17.46
2022-09-28T16:26:36.117Z,17.54
2022-09-28T16:27:47.091Z,17.43
2022-09-28T16:28:55.054Z,17.29
2022-09-28T16:30:24.474Z,17.55
2022-09-28T16:31:34.530Z,17.52
2022-09-28T17:17:08.914Z,17.06
2022-09-28T17:18:15.616Z,16.99
2022-09-28T17:19:23.970Z,17.25
2022-09-28T17:20:32.254Z,17.24
2022-09-28T17:21:39.711Z,17.21
2022-09-28T17:22:43.967Z,17.24
2022-09-28T17:23:52.053Z,17.16
2022-09-28T17:25:12.822Z,17.14
2022-09-28T17:26:31.781Z,17.25
2022-09-28T17:27:42.725Z,16.76
2022-09-28T17:28:46.841Z,17.26
2022-09-28T17:29:51.777Z,17.16
2022-09-28T17:30:58.508Z,17.25
2022-09-28T17:32:12.258Z,17.10
2022-09-28T17:33:16.472Z,17.23
2022-09-28T17:34:22.061Z,17.19
2022-09-28T17:35:26.543Z,17.22
2022-09-28T17:36:34.706Z,16.88